Time;durP1;ratioP1;P1;durP2;ratioP2;P2;SDS_P1;SDS_P2;PMS_P1;PMS_P2;Temp;Humidity;BMP_temperature;BMP_pressure;BME280_temperature;BME280_humidity;BME280_pressure;Samples;Min_cycle;Max_cycle;Signal;HPM_P1;HPM_P2
2023/01/01 00:00:55;;;;;;;69.78;46.55;;;9.00;84.70;;;;;;5074680;28;20361;-12
2023/01/01 00:03:20;;;;;;;75.60;49.00;;;9.10;84.70;;;;;;5075019;28;20078;-12
2023/01/01 00:05:46;;;;;;;83.25;53.75;;;9.10;84.70;;;;;;5074489;28;20100;-12
2023/01/01 00:08:12;;;;;;;92.22;55.45;;;9.10;84.60;;;;;;5074646;28;20119;-12
2023/01/01 00:10:38;;;;;;;81.22;53.63;;;9.20;84.50;;;;;;5073109;28;20040;-12
2023/01/01 00:13:04;;;;;;;77.93;50.83;;;9.20;84.40;;;;;;5074257;28;20025;-12
2023/01/01 00:15:30;;;;;;;76.68;49.70;;;9.20;84.40;;;;;;5074725;28;20024;-11
2023/01/01 00:17:56;;;;;;;88.72;52.28;;;9.20;84.40;;;;;;5074552;28;20384;-11
2023/01/01 00:20:23;;;;;;;74.80;49.22;;;9.20;84.40;;;;;;5072921;28;20036;-11
2023/01/01 00:22:49;;;;;;;82.68;50.58;;;9.20;84.30;;;;;;5074314;28;20035;-12
2023/01/01 00:25:16;;;;;;;81.53;49.50;;;9.20;84.30;;;;;;5074124;28;20029;-11
2023/01/01 00:27:42;;;;;;;81.47;50.58;;;9.30;84.30;;;;;;5074436;28;20032;-11
2023/01/01 00:30:10;;;;;;;96.53;59.90;;;9.30;84.10;;;;;;5074323;28;20425;-11
2023/01/01 00:32:36;;;;;;;104.90;64.20;;;9.40;83.50;;;;;;5074176;28;20030;-11
2023/01/01 00:37:47;;;;;;;109.32;68.85;;;9.50;82.80;;;;;;5164243;22;20752;-14
2023/01/01 00:40:17;;;;;;;112.47;69.32;;;9.40;82.90;;;;;;5089271;28;20044;-13
2023/01/01 00:42:48;;;;;;;103.75;65.30;;;9.40;83.10;;;;;;5089608;28;20428;-16
2023/01/01 00:45:18;;;;;;;117.82;71.90;;;9.40;83.20;;;;;;5089921;28;20016;-17
2023/01/01 00:47:48;;;;;;;121.03;73.30;;;9.30;83.30;;;;;;5089616;28;20028;-16
2023/01/01 00:50:14;;;;;;;110.75;67.50;;;9.30;83.30;;;;;;5089528;28;20032;-17
2023/01/01 00:52:47;;;;;;;123.07;78.70;;;9.30;83.40;;;;;;5089572;28;20030;-16
2023/01/01 00:55:13;;;;;;;124.60;75.83;;;9.20;83.50;;;;;;5089666;28;20115;-15
2023/01/01 00:57:40;;;;;;;108.05;64.97;;;9.20;83.60;;;;;;5089468;28;20107;-12
2023/01/01 01:00:07;;;;;;;108.10;69.22;;;9.10;83.70;;;;;;5089340;28;20021;-16
2023/01/01 01:02:33;;;;;;;106.05;68.35;;;9.20;83.80;;;;;;5089316;28;20024;-10
2023/01/01 01:05:00;;;;;;;119.43;74.78;;;9.20;83.80;;;;;;5089633;28;20032;-17
2023/01/01 01:07:26;;;;;;;146.88;93.13;;;9.30;83.90;;;;;;5089252;28;20035;-16
2023/01/01 01:09:52;;;;;;;147.73;89.95;;;9.20;83.90;;;;;;5089199;28;20024;-16
2023/01/01 01:12:18;;;;;;;148.95;89.05;;;9.20;83.80;;;;;;5089182;28;20078;-16
2023/01/01 01:14:43;;;;;;;142.10;86.60;;;9.20;83.70;;;;;;5089625;28;20118;-12
2023/01/01 01:17:09;;;;;;;135.15;81.35;;;9.20;83.80;;;;;;5088704;28;20125;-16
2023/01/01 01:19:35;;;;;;;136.85;80.95;;;9.10;83.90;;;;;;5089395;28;20029;-16
2023/01/01 01:22:01;;;;;;;152.85;94.25;;;9.10;84.00;;;;;;5087640;28;20028;-14
2023/01/01 01:24:30;;;;;;;143.00;86.75;;;9.00;84.20;;;;;;5087594;28;20077;-15
2023/01/01 01:27:12;;;;;;;129.30;78.53;;;9.00;84.20;;;;;;5087411;28;20027;-15
2023/01/01 01:29:38;;;;;;;99.63;65.20;;;9.00;84.30;;;;;;5089252;28;20013;-16
2023/01/01 01:32:11;;;;;;;120.78;74.80;;;9.00;84.40;;;;;;5089071;28;20017;-15
2023/01/01 01:34:40;;;;;;;118.07;72.18;;;9.00;84.40;;;;;;5088818;28;20554;-15
2023/01/01 01:37:07;;;;;;;112.15;73.10;;;9.10;84.50;;;;;;5146522;22;20076;-15
2023/01/01 01:39:33;;;;;;;115.38;74.03;;;9.10;84.50;;;;;;5088928;28;20450;-11
2023/01/01 01:42:01;;;;;;;116.85;74.82;;;9.20;84.50;;;;;;5089526;28;20060;-12
2023/01/01 01:44:48;;;;;;;96.47;62.25;;;9.20;84.50;;;;;;5088707;28;20036;-14
2023/01/01 01:47:19;;;;;;;104.13;68.15;;;9.20;84.30;;;;;;5085061;28;20039;-16
2023/01/01 01:49:45;;;;;;;118.05;74.30;;;9.30;84.40;;;;;;5075203;28;20032;-17
2023/01/01 01:52:12;;;;;;;104.95;66.40;;;9.30;84.40;;;;;;5075156;28;20483;-14
2023/01/01 01:54:38;;;;;;;107.07;67.00;;;9.40;84.20;;;;;;5075090;28;20020;-16
2023/01/01 01:57:08;;;;;;;119.65;75.03;;;9.40;84.00;;;;;;5075101;28;20125;-15
2023/01/01 01:59:41;;;;;;;109.95;71.53;;;9.40;84.00;;;;;;5074991;28;20117;-16
2023/01/01 02:02:27;;;;;;;124.55;75.82;;;9.40;84.00;;;;;;5075363;28;20123;-16
2023/01/01 02:04:54;;;;;;;146.75;86.45;;;9.40;84.00;;;;;;5074996;28;20494;-16
2023/01/01 02:07:22;;;;;;;129.80;81.47;;;9.50;84.00;;;;;;5074709;28;20025;-16
2023/01/01 02:09:48;;;;;;;117.53;74.00;;;9.50;83.90;;;;;;5075140;28;20040;-16
2023/01/01 02:12:14;;;;;;;138.82;84.53;;;9.40;83.90;;;;;;5075031;28;20093;-14
2023/01/01 02:14:40;;;;;;;131.00;75.40;;;9.40;83.90;;;;;;5074712;28;20476;-16
2023/01/01 02:17:16;;;;;;;114.35;69.90;;;9.40;83.90;;;;;;5074371;28;20068;-16
2023/01/01 02:20:00;;;;;;;134.02;81.90;;;9.40;84.00;;;;;;5074627;28;20024;-16
2023/01/01 02:22:26;;;;;;;;;;;9.40;83.80;;;;;;5075013;28;20525;-15
2023/01/01 02:25:27;;;;;;;123.47;75.78;;;9.40;83.80;;;;;;5074479;28;19904;-14
2023/01/01 02:28:40;;;;;;;113.25;72.97;;;9.40;83.80;;;;;;5074565;28;20038;-16
2023/01/01 02:31:09;;;;;;;120.25;74.22;;;9.40;83.80;;;;;;5011842;28;20029;-14
2023/01/01 02:33:36;;;;;;;116.10;72.30;;;9.40;83.70;;;;;;5012834;28;20069;-16
2023/01/01 02:36:03;;;;;;;107.07;69.07;;;9.40;83.80;;;;;;5012340;28;20053;-12
2023/01/01 02:38:35;;;;;;;111.97;71.43;;;9.50;83.60;;;;;;5012563;28;20038;-13
2023/01/01 02:41:09;;;;;;;112.93;71.72;;;9.50;83.60;;;;;;5012206;28;20034;-13
2023/01/01 02:43:36;;;;;;;120.60;73.97;;;9.50;83.60;;;;;;5012415;28;20124;-16
2023/01/01 02:46:10;;;;;;;114.68;72.57;;;9.50;83.70;;;;;;5012331;28;20018;-14
2023/01/01 02:48:49;;;;;;;116.43;74.70;;;9.50;83.70;;;;;;5012383;28;20112;-12
2023/01/01 02:51:35;;;;;;;114.88;71.30;;;9.50;83.70;;;;;;5012118;28;20033;-14
2023/01/01 02:54:10;;;;;;;111.28;72.22;;;9.50;83.70;;;;;;5012144;28;20442;-14
2023/01/01 02:56:52;;;;;;;134.73;83.97;;;9.40;83.80;;;;;;4995738;28;20442;-15
2023/01/01 03:02:30;;;;;;;107.53;66.93;;;9.40;83.70;;;;;;5012649;28;20053;-17
2023/01/01 03:05:13;;;;;;;109.18;68.18;;;9.40;83.80;;;;;;5011766;28;20109;-16
2023/01/01 03:08:00;;;;;;;104.83;65.47;;;9.40;83.90;;;;;;5045317;28;20391;-16
2023/01/01 03:10:49;;;;;;;103.88;65.93;;;9.40;84.00;;;;;;5073965;28;20098;-13
2023/01/01 03:13:39;;;;;;;117.03;71.55;;;9.40;84.00;;;;;;5073226;28;20029;-15
2023/01/01 03:16:16;;;;;;;96.72;60.35;;;9.40;84.00;;;;;;5074019;28;20052;-13
2023/01/01 03:19:12;;;;;;;107.03;64.43;;;9.50;84.10;;;;;;5072198;28;20035;-13
2023/01/01 03:21:43;;;;;;;101.50;61.00;;;9.50;84.00;;;;;;5073389;28;20020;-16
2023/01/01 03:24:16;;;;;;;104.05;65.47;;;9.50;84.00;;;;;;5073904;28;20371;-15
2023/01/01 03:26:44;;;;;;;99.40;61.00;;;9.50;84.00;;;;;;5073687;28;20046;-16
2023/01/01 03:29:12;;;;;;;96.45;60.28;;;9.40;83.90;;;;;;5073484;28;20017;-13
2023/01/01 03:31:42;;;;;;;122.93;73.88;;;9.50;83.90;;;;;;5073585;28;20024;-14
2023/01/01 03:34:16;;;;;;;125.38;74.97;;;9.50;83.90;;;;;;5073240;28;20028;-13
2023/01/01 03:36:47;;;;;;;114.57;69.95;;;9.50;83.80;;;;;;5072733;28;20088;-14
2023/01/01 03:39:30;;;;;;;106.70;64.72;;;9.50;83.70;;;;;;5073480;28;20387;-12
2023/01/01 03:42:15;;;;;;;112.63;69.65;;;9.50;83.80;;;;;;5073471;28;20052;-15
2023/01/01 03:44:49;;;;;;;125.32;73.78;;;9.40;83.90;;;;;;5073347;28;20035;-13
2023/01/01 03:47:16;;;;;;;115.05;70.18;;;9.40;83.80;;;;;;5073461;28;20029;-14
2023/01/01 03:49:42;;;;;;;125.22;76.22;;;9.40;83.90;;;;;;5073208;28;20051;-12
2023/01/01 03:52:20;;;;;;;128.35;77.50;;;9.40;83.90;;;;;;5073090;28;20025;-15
2023/01/01 03:54:57;;;;;;;120.07;71.30;;;9.40;83.90;;;;;;5072867;28;20036;-15
2023/01/01 03:57:41;;;;;;;91.68;57.85;;;9.30;83.90;;;;;;5073214;28;20028;-13
2023/01/01 04:00:19;;;;;;;118.18;68.45;;;9.30;84.00;;;;;;5072783;28;20031;-13
2023/01/01 04:02:54;;;;;;;90.70;55.05;;;9.20;84.10;;;;;;5073344;28;20029;-12
2023/01/01 04:05:21;;;;;;;84.57;53.67;;;9.20;84.30;;;;;;5072650;28;20016;-13
2023/01/01 04:07:49;;;;;;;115.93;67.80;;;9.30;84.30;;;;;;5072679;28;20025;-14
2023/01/01 04:10:18;;;;;;;103.88;63.08;;;9.30;84.40;;;;;;5072510;28;20024;-16
2023/01/01 04:12:49;;;;;;;99.88;60.13;;;9.40;84.30;;;;;;5072698;28;20090;-16
2023/01/01 04:15:17;;;;;;;104.03;60.22;;;9.40;84.30;;;;;;5072401;28;20025;-16
2023/01/01 04:17:43;;;;;;;95.78;58.15;;;9.40;84.40;;;;;;5072767;28;20028;-14
2023/01/01 04:20:10;;;;;;;95.97;56.72;;;9.40;84.40;;;;;;5072875;28;20031;-16
2023/01/01 04:22:37;;;;;;;78.78;52.13;;;9.40;84.40;;;;;;5071129;28;20032;-16
2023/01/01 04:25:03;;;;;;;103.85;62.78;;;9.40;84.40;;;;;;5072218;28;20028;-15
2023/01/01 04:27:29;;;;;;;108.88;63.92;;;9.40;84.50;;;;;;5072360;28;20047;-14
2023/01/01 04:29:55;;;;;;;81.57;52.05;;;9.40;84.40;;;;;;5072794;28;20051;-16
2023/01/01 04:32:21;;;;;;;86.43;53.35;;;9.40;84.30;;;;;;5072290;28;20028;-16
2023/01/01 04:34:48;;;;;;;79.50;51.35;;;9.40;84.30;;;;;;5072143;28;20052;-15
2023/01/01 04:37:14;;;;;;;79.95;50.03;;;9.40;84.30;;;;;;5071933;28;20575;-15
2023/01/01 04:39:40;;;;;;;93.47;57.25;;;9.40;84.30;;;;;;5072679;28;20029;-15
2023/01/01 04:42:06;;;;;;;107.55;65.05;;;9.50;84.30;;;;;;5072554;28;20380;-14
2023/01/01 04:44:35;;;;;;;90.32;53.72;;;9.50;84.20;;;;;;5072185;28;20360;-16
2023/01/01 04:47:01;;;;;;;87.35;52.35;;;9.50;84.20;;;;;;5072333;28;20044;-14
2023/01/01 04:49:27;;;;;;;83.53;51.70;;;9.50;84.20;;;;;;5071146;28;20484;-15
2023/01/01 04:51:52;;;;;;;79.65;50.60;;;9.50;84.30;;;;;;5072107;28;20028;-16
2023/01/01 04:54:18;;;;;;;81.15;50.25;;;9.50;84.30;;;;;;5072116;28;20040;-16
2023/01/01 04:56:44;;;;;;;92.75;56.03;;;9.50;84.20;;;;;;5072319;28;20060;-15
2023/01/01 04:59:10;;;;;;;99.18;58.60;;;9.60;84.00;;;;;;5071928;28;20453;-16
2023/01/01 05:01:36;;;;;;;95.18;55.72;;;9.60;84.00;;;;;;5072366;28;20039;-14
2023/01/01 05:04:02;;;;;;;81.22;51.17;;;9.60;84.00;;;;;;5071970;28;20387;-16
2023/01/01 05:06:28;;;;;;;95.53;57.50;;;9.60;84.00;;;;;;5071952;28;20031;-15
2023/01/01 05:08:55;;;;;;;76.00;48.80;;;9.60;83.90;;;;;;5072110;28;20114;-15
2023/01/01 05:11:24;;;;;;;90.00;54.70;;;9.60;84.00;;;;;;5071949;28;20040;-14
2023/01/01 05:13:52;;;;;;;107.07;60.47;;;9.60;84.10;;;;;;5072283;28;20141;-15
2023/01/01 05:16:24;;;;;;;78.72;49.13;;;9.60;84.00;;;;;;5071844;28;20391;-14
2023/01/01 05:18:50;;;;;;;75.13;45.72;;;9.60;84.00;;;;;;5072127;28;20025;-14
2023/01/01 05:21:19;;;;;;;94.95;55.92;;;9.60;84.00;;;;;;5072295;28;20111;-14
2023/01/01 05:23:45;;;;;;;75.95;46.33;;;9.60;84.00;;;;;;5074940;28;20032;-17
2023/01/01 05:26:16;;;;;;;81.10;50.60;;;9.60;84.00;;;;;;5075900;28;20024;-14
2023/01/01 05:28:43;;;;;;;78.90;50.28;;;9.60;83.80;;;;;;5075757;28;20052;-16
2023/01/01 05:31:12;;;;;;;79.35;49.53;;;9.70;83.70;;;;;;5075416;28;20029;-15
2023/01/01 05:33:38;;;;;;;82.32;50.72;;;9.70;83.50;;;;;;5075426;28;20020;-15
2023/01/01 05:36:06;;;;;;;84.70;52.25;;;9.70;83.50;;;;;;5074993;28;20076;-15
2023/01/01 05:38:32;;;;;;;90.10;53.45;;;9.70;83.40;;;;;;5074743;28;20040;-15
2023/01/01 05:40:58;;;;;;;100.80;61.15;;;9.70;83.40;;;;;;5075407;28;20024;-16
2023/01/01 05:43:24;;;;;;;100.93;60.28;;;9.70;83.50;;;;;;5075797;28;20051;-15
2023/01/01 05:46:01;;;;;;;102.22;58.95;;;9.70;83.50;;;;;;5075548;28;20020;-14
2023/01/01 05:48:27;;;;;;;105.07;61.42;;;9.60;83.40;;;;;;5075187;28;20056;-13
2023/01/01 05:50:53;;;;;;;105.60;61.28;;;9.60;83.40;;;;;;5074892;28;20063;-13
2023/01/01 05:53:19;;;;;;;87.40;54.53;;;9.50;83.50;;;;;;5075478;28;20067;-14
2023/01/01 05:55:51;;;;;;;86.85;54.58;;;9.40;83.60;;;;;;5075224;28;20369;-12
2023/01/01 05:58:17;;;;;;;99.30;57.67;;;9.40;83.80;;;;;;5075081;28;20056;-13
2023/01/01 06:00:43;;;;;;;75.72;47.13;;;9.30;83.90;;;;;;5075117;28;20059;-15
2023/01/01 06:03:08;;;;;;;80.40;49.17;;;9.30;84.00;;;;;;5074689;28;20029;-13
2023/01/01 06:05:34;;;;;;;73.40;46.35;;;9.30;84.10;;;;;;5075123;28;20028;-14
2023/01/01 06:08:00;;;;;;;75.38;48.08;;;9.30;84.20;;;;;;5075169;28;20032;-14
2023/01/01 06:10:26;;;;;;;76.85;48.17;;;9.40;84.20;;;;;;5075265;28;20325;-15
2023/01/01 06:12:57;;;;;;;74.55;48.42;;;9.40;84.20;;;;;;5074523;28;20025;-14
2023/01/01 06:15:24;;;;;;;74.47;46.30;;;9.40;84.20;;;;;;5074912;28;20112;-14
2023/01/01 06:17:51;;;;;;;100.60;58.28;;;9.40;84.20;;;;;;5075499;28;20021;-15
2023/01/01 06:20:17;;;;;;;92.97;54.70;;;9.50;84.10;;;;;;5074506;28;20021;-13
2023/01/01 06:22:43;;;;;;;79.50;50.17;;;9.50;84.10;;;;;;5074489;28;20115;-15
2023/01/01 06:25:10;;;;;;;77.13;48.28;;;9.40;84.10;;;;;;5074314;28;20158;-14
2023/01/01 06:27:36;;;;;;;90.40;53.53;;;9.40;84.10;;;;;;5074430;28;20514;-15
2023/01/01 06:30:03;;;;;;;68.13;42.85;;;9.40;84.20;;;;;;5074567;28;20033;-14
2023/01/01 06:32:29;;;;;;;79.28;46.72;;;9.40;84.20;;;;;;5074809;28;20032;-16
2023/01/01 06:34:55;;;;;;;69.85;47.30;;;9.40;84.20;;;;;;5074016;28;20096;-16
2023/01/01 06:37:21;;;;;;;75.30;48.47;;;9.40;84.40;;;;;;5073957;28;20106;-16
2023/01/01 06:39:47;;;;;;;69.95;43.65;;;9.40;84.40;;;;;;5074247;28;20070;-16
2023/01/01 06:42:13;;;;;;;67.85;43.35;;;9.40;84.40;;;;;;5074218;28;20024;-14
2023/01/01 06:44:39;;;;;;;65.70;42.83;;;9.50;84.30;;;;;;5074158;28;20365;-16
2023/01/01 06:47:05;;;;;;;71.20;44.40;;;9.50;84.30;;;;;;5072536;28;20070;-15
2023/01/01 06:49:31;;;;;;;69.72;46.40;;;9.50;84.40;;;;;;5074398;28;20025;-15
2023/01/01 06:51:57;;;;;;;99.35;58.47;;;9.50;84.40;;;;;;5073816;28;20514;-15
2023/01/01 06:54:23;;;;;;;104.13;61.85;;;9.50;84.30;;;;;;5072572;28;20029;-14
2023/01/01 06:56:49;;;;;;;81.28;50.38;;;9.50;84.30;;;;;;5073648;28;20121;-15
2023/01/01 06:59:16;;;;;;;77.20;48.38;;;9.50;84.20;;;;;;5073821;28;20566;-15
2023/01/01 07:01:42;;;;;;;99.28;56.53;;;9.50;84.20;;;;;;5074194;28;20029;-13
2023/01/01 07:04:11;;;;;;;85.88;50.47;;;9.40;84.40;;;;;;5074006;28;20376;-14
2023/01/01 07:06:38;;;;;;;80.57;50.80;;;9.40;84.50;;;;;;5073563;28;20032;-15
2023/01/01 07:09:05;;;;;;;70.00;43.90;;;9.40;84.50;;;;;;5073514;28;20024;-14
2023/01/01 07:11:32;;;;;;;73.07;45.17;;;9.40;84.50;;;;;;5073784;28;20133;-14
2023/01/01 07:13:58;;;;;;;83.00;49.28;;;9.50;84.60;;;;;;5072347;28;20024;-15
2023/01/01 07:16:24;;;;;;;84.97;49.83;;;9.50;84.50;;;;;;5073505;28;20040;-14
2023/01/01 07:18:51;;;;;;;95.40;57.72;;;9.60;84.40;;;;;;5073229;28;20111;-14
2023/01/01 07:21:30;;;;;;;92.00;56.60;;;9.60;84.50;;;;;;5073659;28;20036;-13
2023/01/01 07:23:57;;;;;;;105.00;60.47;;;9.60;84.40;;;;;;5073363;28;20130;-17
2023/01/01 07:26:25;;;;;;;102.18;61.00;;;9.60;84.30;;;;;;5073538;28;20020;-17
2023/01/01 07:28:51;;;;;;;105.88;62.97;;;9.60;84.20;;;;;;5073409;28;20029;-14
2023/01/01 07:31:17;;;;;;;94.43;55.50;;;9.50;84.20;;;;;;5073230;28;20039;-14
2023/01/01 07:33:43;;;;;;;79.30;47.95;;;9.50;84.20;;;;;;5071932;28;20071;-16
2023/01/01 07:36:09;;;;;;;74.60;47.03;;;9.50;84.30;;;;;;5072964;28;20049;-16
2023/01/01 07:38:35;;;;;;;83.13;50.53;;;9.60;84.30;;;;;;5073351;28;20475;-16
2023/01/01 07:41:01;;;;;;;88.20;52.90;;;9.60;84.40;;;;;;5071625;28;20020;-14
2023/01/01 07:43:27;;;;;;;92.05;55.38;;;9.70;84.50;;;;;;5071791;28;20028;-15
2023/01/01 07:45:52;;;;;;;98.95;57.17;;;9.70;84.40;;;;;;5072450;28;20487;-16
2023/01/01 07:48:18;;;;;;;104.30;63.90;;;9.80;84.40;;;;;;5072941;28;20025;-15
2023/01/01 07:50:44;;;;;;;87.43;52.58;;;9.80;84.20;;;;;;5071706;28;20028;-15
2023/01/01 07:53:10;;;;;;;110.93;65.68;;;9.80;84.20;;;;;;5072979;28;20028;-14
2023/01/01 07:55:36;;;;;;;99.50;60.08;;;9.80;84.20;;;;;;5072813;28;20404;-16
2023/01/01 07:58:03;;;;;;;101.80;60.65;;;9.80;84.20;;;;;;5072939;28;20029;-12
2023/01/01 08:00:29;;;;;;;75.72;49.60;;;9.80;84.20;;;;;;5071453;28;20116;-13
2023/01/01 08:02:55;;;;;;;102.53;61.70;;;9.80;84.30;;;;;;5072746;28;20438;-15
2023/01/01 08:05:20;;;;;;;100.30;59.63;;;9.90;84.40;;;;;;5072656;28;20020;-16
2023/01/01 08:07:50;;;;;;;95.35;56.72;;;9.90;84.40;;;;;;5072619;28;20025;-15
2023/01/01 08:10:19;;;;;;;93.65;57.00;;;9.90;84.40;;;;;;5072711;28;20074;-14
2023/01/01 08:12:45;;;;;;;78.03;50.15;;;10.00;84.30;;;;;;5072963;28;20025;-14
2023/01/01 08:15:11;;;;;;;83.88;51.47;;;10.10;84.40;;;;;;5072659;28;20059;-14
2023/01/01 08:17:38;;;;;;;98.07;60.88;;;10.20;84.40;;;;;;5072805;28;20016;-16
2023/01/01 08:20:06;;;;;;;104.20;62.38;;;10.40;84.30;;;;;;5071580;28;20091;-16
2023/01/01 08:22:31;;;;;;;99.63;59.20;;;10.40;84.10;;;;;;5072570;28;20016;-15
2023/01/01 08:24:57;;;;;;;74.55;49.45;;;10.50;84.00;;;;;;5072321;28;20029;-16
2023/01/01 08:27:23;;;;;;;79.70;50.05;;;10.60;83.80;;;;;;5071008;28;20021;-15
2023/01/01 08:29:49;;;;;;;78.38;47.22;;;10.70;83.70;;;;;;5072360;28;20031;-14
2023/01/01 08:32:15;;;;;;;74.95;47.65;;;10.90;83.60;;;;;;5072379;28;20024;-15
2023/01/01 08:34:41;;;;;;;77.28;47.25;;;10.90;83.40;;;;;;5072677;28;20031;-15
2023/01/01 08:37:14;;;;;;;92.05;54.25;;;11.10;83.40;;;;;;5071698;28;20079;-15
2023/01/01 08:39:40;;;;;;;88.72;54.50;;;11.20;83.10;;;;;;5072652;28;20025;-15
2023/01/01 08:42:06;;;;;;;94.15;56.67;;;11.30;82.60;;;;;;5072506;28;20068;-14
2023/01/01 08:44:32;;;;;;;95.05;55.85;;;11.30;82.30;;;;;;5072542;28;20468;-14
2023/01/01 08:46:58;;;;;;;87.47;52.40;;;11.30;82.10;;;;;;5072370;28;20040;-14
2023/01/01 08:49:24;;;;;;;95.93;56.63;;;11.30;82.00;;;;;;5072500;28;20039;-15
2023/01/01 08:51:50;;;;;;;92.57;56.20;;;11.30;81.90;;;;;;5072403;28;20035;-17
2023/01/01 08:54:16;;;;;;;101.97;63.55;;;11.30;81.90;;;;;;5072780;28;20029;-15
2023/01/01 08:56:42;;;;;;;92.80;54.80;;;11.30;81.80;;;;;;5072397;28;20387;-15
2023/01/01 08:59:08;;;;;;;87.47;55.30;;;11.30;81.90;;;;;;5073970;28;20476;-16
2023/01/01 09:01:33;;;;;;;92.10;54.33;;;11.20;82.00;;;;;;5076436;28;20495;-14
2023/01/01 09:03:59;;;;;;;83.00;51.03;;;11.30;82.10;;;;;;5076175;28;20032;-16
2023/01/01 09:06:25;;;;;;;85.57;49.67;;;11.30;81.80;;;;;;5076362;28;20025;-16
2023/01/01 09:08:51;;;;;;;74.85;45.33;;;11.40;81.90;;;;;;5075923;28;20020;-16
2023/01/01 09:11:26;;;;;;;75.00;46.00;;;11.40;82.00;;;;;;5075965;28;20028;-14
2023/01/01 09:13:52;;;;;;;87.82;51.00;;;11.40;82.10;;;;;;5075963;28;20025;-15
2023/01/01 09:16:18;;;;;;;63.25;40.10;;;11.60;81.80;;;;;;5075727;28;20056;-14
2023/01/01 09:18:44;;;;;;;74.55;45.78;;;11.60;81.80;;;;;;5076050;28;20455;-14
2023/01/01 09:21:10;;;;;;;70.70;44.50;;;11.70;81.40;;;;;;5075754;28;20036;-14
2023/01/01 09:23:36;;;;;;;76.20;45.97;;;11.80;81.30;;;;;;5075903;28;20068;-16
2023/01/01 09:26:08;;;;;;;71.93;45.05;;;11.90;81.00;;;;;;5074449;28;20047;-16
2023/01/01 09:28:34;;;;;;;70.47;42.85;;;12.00;81.00;;;;;;5075598;28;20099;-16
2023/01/01 09:31:00;;;;;;;66.43;42.00;;;12.10;80.80;;;;;;5075275;28;20433;-15
2023/01/01 09:33:27;;;;;;;62.97;41.53;;;12.20;80.70;;;;;;5075541;28;20039;-15
2023/01/01 09:35:53;;;;;;;77.68;47.08;;;12.30;80.10;;;;;;5075629;28;20044;-16
2023/01/01 09:38:19;;;;;;;84.40;51.92;;;12.40;80.50;;;;;;5075471;28;20059;-16
2023/01/01 09:41:15;;;;;;;83.57;51.45;;;12.40;80.00;;;;;;5075373;28;20036;-17
2023/01/01 09:44:06;;;;;;;61.15;38.95;;;12.40;79.90;;;;;;5075646;28;20123;-15
2023/01/01 09:46:33;;;;;;;67.53;42.67;;;12.50;79.90;;;;;;5075289;28;20036;-16
2023/01/01 09:49:02;;;;;;;65.20;39.83;;;12.60;79.40;;;;;;5075035;28;20025;-13
2023/01/01 09:51:34;;;;;;;58.10;37.03;;;12.60;79.40;;;;;;5075337;28;20024;-17
2023/01/01 09:54:10;;;;;;;62.88;39.60;;;12.60;79.20;;;;;;5075580;28;20033;-14
2023/01/01 09:56:38;;;;;;;58.88;39.00;;;12.60;79.40;;;;;;5074964;28;20040;-12
2023/01/01 09:59:03;;;;;;;72.82;43.95;;;12.60;79.50;;;;;;5075147;28;20064;-15
2023/01/01 10:02:01;;;;;;;65.80;40.92;;;12.70;79.30;;;;;;5075213;28;20408;-16
2023/01/01 10:04:47;;;;;;;64.65;41.38;;;12.60;79.30;;;;;;5013262;28;20115;-14
2023/01/01 10:07:34;;;;;;;60.65;37.17;;;12.60;79.40;;;;;;5012948;28;20033;-11
2023/01/01 10:10:00;;;;;;;62.70;39.30;;;12.70;79.50;;;;;;5012589;28;20029;-12
2023/01/01 10:12:50;;;;;;;64.00;39.33;;;12.70;79.40;;;;;;5013046;28;20036;-14
2023/01/01 10:15:22;;;;;;;65.90;39.67;;;12.80;79.20;;;;;;5013054;28;20065;-13
2023/01/01 10:17:51;;;;;;;59.85;38.28;;;12.90;79.00;;;;;;5013395;28;20387;-14
2023/01/01 10:20:40;;;;;;;64.57;39.08;;;12.90;78.80;;;;;;5012803;28;20034;-15
2023/01/01 10:23:20;;;;;;;66.68;41.63;;;13.10;78.30;;;;;;4996142;28;20207;-15
2023/01/01 10:25:46;;;;;;;65.93;40.72;;;13.10;77.60;;;;;;5012877;28;20032;-14
2023/01/01 10:28:31;;;;;;;69.13;42.50;;;13.10;77.80;;;;;;5012648;28;20057;-13
2023/01/01 10:31:15;;;;;;;70.25;42.22;;;13.20;77.50;;;;;;5012480;28;20065;-13
2023/01/01 10:33:41;;;;;;;;;;;13.30;77.30;;;;;;5013027;28;20049;-16
2023/01/01 10:36:12;;;;;;;73.60;43.80;;;13.30;76.60;;;;;;5012226;28;19925;-14
2023/01/01 10:38:39;;;;;;;72.85;44.13;;;13.40;75.90;;;;;;5013010;28;20371;-13
2023/01/01 10:41:10;;;;;;;69.50;41.90;;;13.30;75.70;;;;;;5070042;28;20438;-15
2023/01/01 10:43:36;;;;;;;67.38;41.28;;;13.40;75.70;;;;;;5074643;28;20086;-14
2023/01/01 10:46:04;;;;;;;68.82;43.35;;;13.40;75.60;;;;;;5074315;28;20453;-14
2023/01/01 10:48:31;;;;;;;71.15;43.00;;;13.40;75.50;;;;;;5074449;28;20045;-13
2023/01/01 10:51:05;;;;;;;77.78;47.40;;;13.40;75.20;;;;;;5074225;28;20028;-14
2023/01/01 10:53:35;;;;;;;87.93;49.08;;;13.50;75.10;;;;;;5074005;28;20028;-13
2023/01/01 10:56:01;;;;;;;77.38;47.13;;;13.50;75.10;;;;;;5074329;28;20029;-14
2023/01/01 10:58:36;;;;;;;76.97;46.30;;;13.60;75.10;;;;;;5073941;28;20097;-16
2023/01/01 11:01:05;;;;;;;76.97;46.75;;;13.70;74.90;;;;;;5072437;28;20021;-15
2023/01/01 11:03:31;;;;;;;76.45;45.25;;;13.80;74.70;;;;;;5074028;28;20028;-14
2023/01/01 11:06:12;;;;;;;71.55;43.35;;;13.90;74.60;;;;;;5074125;28;20027;-16
2023/01/01 11:08:45;;;;;;;69.78;42.08;;;14.00;74.40;;;;;;5073946;28;20107;-16
2023/01/01 11:11:45;;;;;;;64.70;38.85;;;14.10;74.40;;;;;;5073470;28;20025;-15
2023/01/01 11:14:21;;;;;;;63.53;38.72;;;14.30;74.20;;;;;;5070789;28;20029;-16
2023/01/01 11:16:48;;;;;;;65.47;38.38;;;14.40;73.90;;;;;;5073366;28;20036;-18
2023/01/01 11:19:25;;;;;;;64.63;38.50;;;14.50;72.80;;;;;;5073514;28;20053;-15
2023/01/01 11:21:51;;;;;;;63.85;37.67;;;14.50;72.60;;;;;;5072666;28;20035;-14
2023/01/01 11:24:23;;;;;;;60.60;37.25;;;14.50;72.90;;;;;;5073441;28;20020;-14
2023/01/01 11:26:51;;;;;;;69.95;39.28;;;14.60;72.50;;;;;;5073079;28;20079;-14
2023/01/01 11:29:34;;;;;;;68.63;39.78;;;14.60;72.70;;;;;;5073567;28;20035;-15
2023/01/01 11:32:00;;;;;;;;;;;14.70;72.90;;;;;;5073729;28;20518;-14
2023/01/01 11:34:38;;;;;;;62.08;37.97;;;14.80;73.10;;;;;;5073417;28;19916;-16
2023/01/01 11:37:21;;;;;;;71.85;41.60;;;14.90;72.60;;;;;;5072648;28;20119;-16
2023/01/01 11:39:51;;;;;;;68.15;40.72;;;15.10;72.20;;;;;;5073127;28;20054;-17
2023/01/01 11:42:24;;;;;;;69.65;39.35;;;15.20;71.60;;;;;;5072977;28;20044;-17
2023/01/01 11:45:21;;;;;;;65.13;37.65;;;15.30;71.50;;;;;;5073099;28;20025;-14
2023/01/01 11:47:56;;;;;;;66.00;39.28;;;15.20;71.30;;;;;;5072509;28;20119;-16
2023/01/01 11:50:31;;;;;;;72.35;42.97;;;15.30;70.40;;;;;;5073250;28;20028;-15
2023/01/01 11:53:15;;;;;;;66.72;41.05;;;15.30;71.10;;;;;;5072687;28;20436;-15
2023/01/01 11:56:04;;;;;;;68.93;40.28;;;15.30;71.00;;;;;;5073397;28;20074;-14
2023/01/01 11:58:48;;;;;;;66.30;39.97;;;15.30;71.20;;;;;;5061943;28;20024;-16
2023/01/01 12:01:20;;;;;;;;;;;15.30;71.60;;;;;;5073656;28;20024;-16
2023/01/01 12:04:00;;;;;;;61.88;38.22;;;15.30;71.60;;;;;;5073063;28;19911;-13
2023/01/01 12:06:37;;;;;;;68.85;42.53;;;15.30;71.90;;;;;;5072663;28;20031;-14
2023/01/01 12:09:18;;;;;;;64.82;39.70;;;15.40;71.70;;;;;;5071192;28;20037;-14
2023/01/01 12:12:04;;;;;;;65.28;41.22;;;15.40;71.90;;;;;;5072710;28;20028;-13
2023/01/01 12:14:54;;;;;;;70.72;43.83;;;15.50;71.80;;;;;;5072937;28;20105;-16
2023/01/01 12:17:46;;;;;;;61.88;38.55;;;15.60;70.80;;;;;;5072822;28;20032;-16
2023/01/01 12:20:35;;;;;;;61.58;38.00;;;15.60;71.40;;;;;;5072587;28;20028;-14
2023/01/01 12:23:02;;;;;;;58.88;36.00;;;15.50;71.50;;;;;;5070957;28;20020;-15
2023/01/01 12:25:40;;;;;;;66.78;39.90;;;15.30;71.30;;;;;;5072727;28;20482;-13
2023/01/01 12:28:38;;;;;;;52.78;33.58;;;15.10;71.40;;;;;;5072430;28;20034;-16
2023/01/01 12:31:14;;;;;;;64.28;37.72;;;15.00;72.20;;;;;;5072863;28;20073;-14
2023/01/01 12:33:57;;;;;;;62.35;37.13;;;14.90;71.90;;;;;;5072710;28;20044;-14
2023/01/01 12:36:32;;;;;;;61.83;36.80;;;14.80;72.10;;;;;;5070729;28;20511;-15
2023/01/01 12:39:17;;;;;;;56.83;33.63;;;14.60;72.60;;;;;;5072564;28;20263;-16
2023/01/01 12:42:03;;;;;;;61.42;35.47;;;14.50;73.30;;;;;;5072795;28;20104;-14
2023/01/01 12:45:06;;;;;;;60.65;33.67;;;14.40;73.70;;;;;;5072413;28;20025;-14
2023/01/01 12:47:35;;;;;;;66.50;39.05;;;14.40;73.80;;;;;;5072778;28;20107;-16
2023/01/01 12:50:23;;;;;;;63.90;37.85;;;14.50;73.60;;;;;;5072557;28;20036;-14
2023/01/01 12:53:24;;;;;;;61.53;35.92;;;14.60;74.00;;;;;;5072118;28;20025;-14
2023/01/01 12:55:59;;;;;;;64.93;37.92;;;14.70;73.90;;;;;;5061298;28;20146;-13